Main page
METAR-TAF:

METAR-TAF

Airports :

Pontiac Municipal Airport

Pontiac, Illinois, United States

latitude: 40-55-25N, longitude: 088-37-31W, elevation: 659 ft

Current weather observation

The report was made 39 minutes ago, at 12:35 UTC
Wind 9 mph from the South
Temperature 70°F
Humidity 94%
Pressure 29.91 in. Hg
Visibility: 7 miles
Broken clouds at a height of 1000 ft
Overcast at a height of 1500 ft

METAR: KPNT 281235Z AUTO 17008KT 7SM BKN010 OVC015 21/20 A2991 RMK AO2 T02110201

Time: 08:14 (13:14 UTC)


TAF: missing

Weather observations and forecasts of more than 4000 airports (METAR and TAF reports).

The available stations are represented by yellow and red dots on the map.

Hover mouse over dot to see the name of the station.

Then click to see weather observations and forecasts.

To change the map : click on the green buttons with a black cross to zoom in, on the green button with a dash to zoom out, or on the green arrows for adjacent maps.


METAR-TAF: